Address 0x4428ef2e86c728259405741f3ce8d7e31f584df1

 

Overview

Balance:
0.010868854203572484 BNB

BNB Value:
$5.46 (@ $501.98/BNB)
Txn Hash Method
Block
From
To
Value [Txn Fee]
0xde02311be2c1c4e2ed0a249c160cd098db42d023ff31d9ae9ad327fc5b4afe39Transfer118646742021-10-17 23:54:462 days 20 hrs ago0x4428ef2e86c728259405741f3ce8d7e31f584df1OUT0x96b85fa6ba1f7194ab2cb822679c7d2ed155b48c0.1044 BNB0.000105
0x7a28619a1e1da5f48a7bccdadcd2b14df76c50e0ac8effd17cf5fc4e7d7a0f13Swap Exact Token...118646262021-10-17 23:52:222 days 20 hrs ago0x4428ef2e86c728259405741f3ce8d7e31f584df1OUT PancakeSwap: Router v20 BNB0.00057626
0xb1205ebd2a32746e3c43ec69df28f4f63e58664e4d5db078e3938e383578172dCreate Sale Auct...118645692021-10-17 23:49:312 days 20 hrs ago0x4428ef2e86c728259405741f3ce8d7e31f584df1OUT 0x5ab19e7091dd208f352f8e727b6dcc6f8abb62750 BNB0.000773
0x19e7abb18256ff788fe128c222ad245ce684a635810f924d5755314877ebbb01Transfer118607972021-10-17 20:39:383 days 7 mins ago0x4428ef2e86c728259405741f3ce8d7e31f584df1OUT0x96b85fa6ba1f7194ab2cb822679c7d2ed155b48c0.047 BNB0.000105
0x2a0c8ea1bcaa1fbecd5d9da278089a48273357308e4eec58bee197d88d8d4795Swap Exact Token...118607292021-10-17 20:36:143 days 10 mins ago0x4428ef2e86c728259405741f3ce8d7e31f584df1OUT PancakeSwap: Router v20 BNB0.00057614
0xa370eb347fee19bdde1b3f40e7c0cf7073abd40973028f80bef790a3e64d86d70xb6ace2fd118606982021-10-17 20:34:413 days 12 mins ago0x4428ef2e86c728259405741f3ce8d7e31f584df1OUT 0x5c50d79adc20630aef122ed2cf953e377cddd0f40 BNB0.00034448
0xbe0a53cc49059699910ad52f1020109b4323c70614b1303753a95b44dd36857dTransfer118606062021-10-17 20:30:053 days 17 mins ago0x4428ef2e86c728259405741f3ce8d7e31f584df1OUT0x96b85fa6ba1f7194ab2cb822679c7d2ed155b48c0.145 BNB0.000105
0x78addc854df7b51286da646704403e74b81e448562cce52813efc63aafb8fedcSwap Exact Token...118605682021-10-17 20:28:113 days 18 mins ago0x4428ef2e86c728259405741f3ce8d7e31f584df1OUT PancakeSwap: Router v20 BNB0.00063668
0x264fb41bccf26bda214ee58b060e3e3bddd0cf4a77a1557e14ece136b84112edApprove118605552021-10-17 20:27:323 days 19 mins ago0x4428ef2e86c728259405741f3ce8d7e31f584df1OUT Plant vs Undead: PVU Token0 BNB0.00022626
0x40c47b16d84c6d1e3477773e673a01c14b3a0a24d7a7b34020b29883fbce5012Create Sale Auct...118604972021-10-17 20:24:383 days 22 mins ago0x4428ef2e86c728259405741f3ce8d7e31f584df1OUT 0x5ab19e7091dd208f352f8e727b6dcc6f8abb62750 BNB0.000848
0x2a63eaa289c8ce78efeee1603204f8adf1795054857735d6f42f8bcbe6d6d835Transfer118603982021-10-17 20:19:413 days 27 mins ago0x4428ef2e86c728259405741f3ce8d7e31f584df1OUT0x96b85fa6ba1f7194ab2cb822679c7d2ed155b48c0.128 BNB0.000105
0x2d44c86ae3e08156240e8204c7c33e8d5158cb1973f91284a11662dd06c32d97Swap118603792021-10-17 20:18:443 days 28 mins ago0x4428ef2e86c728259405741f3ce8d7e31f584df1OUT Metamask: Swap Router0 BNB0.00120711
0x32ba57ebcb8fe3a256dedd2be97b9ccf9ade92c83dc3776c5cf18acee8b52dc3Swap118603502021-10-17 20:17:173 days 29 mins ago0x4428ef2e86c728259405741f3ce8d7e31f584df1OUT Metamask: Swap Router0 BNB0.001652495
0x33e26a16e38dcda5dfcc6dfa8be89a2d504452f64aa78394191837588751616eApprove118603492021-10-17 20:17:143 days 29 mins ago0x4428ef2e86c728259405741f3ce8d7e31f584df1OUT Plant vs Undead: PVU Token0 BNB0.00022626
0x6ae3c6b4655ba776375ea7e7f771999e01804f0e4183e4b117894e9b3ecf7307Create Sale Auct...118603032021-10-17 20:14:473 days 32 mins ago0x4428ef2e86c728259405741f3ce8d7e31f584df1OUT 0x5ab19e7091dd208f352f8e727b6dcc6f8abb62750 BNB0.000848
0x26aca7b0115c71ade517d203e3ff543651759a0adc8ac5e51310759786114de8Create Sale Auct...118602192021-10-17 20:10:353 days 36 mins ago0x4428ef2e86c728259405741f3ce8d7e31f584df1OUT 0x5ab19e7091dd208f352f8e727b6dcc6f8abb62750 BNB0.00089
0x319f6084f559b20934fcc7cc9e3afa82ae686e6795b87a2caac7df1dc63a8959Create Sale Auct...118601172021-10-17 20:05:283 days 41 mins ago0x4428ef2e86c728259405741f3ce8d7e31f584df1OUT 0x5ab19e7091dd208f352f8e727b6dcc6f8abb62750 BNB0.00088988
0x0ecdae095a567be420c0e846d96947fc95302a35bb61123596984bfb811ee664Approve118600902021-10-17 20:03:563 days 43 mins ago0x4428ef2e86c728259405741f3ce8d7e31f584df1OUT Plant vs Undead: PVU Token0 BNB0.00022488
0x28fcd52959d162bae16503bef9a49811f087e5aa13c4eacc7c019687bfeb8d430x44ddc37b117921652021-10-15 11:10:075 days 9 hrs ago0x4428ef2e86c728259405741f3ce8d7e31f584df1OUT 0x5c50d79adc20630aef122ed2cf953e377cddd0f40 BNB0.00132937
0x294ac19b1adab669c774be4a4aa00180ce0cce84e757d00be3df6868f478bd83Transfer117841352021-10-15 4:27:145 days 16 hrs ago0x96b85fa6ba1f7194ab2cb822679c7d2ed155b48c IN 0x4428ef2e86c728259405741f3ce8d7e31f584df10.01 BNB0.000105
0x5cc340526abc694f55154f224ce9309fa36f46b07432b60dce06d37155aa4687Swap117704772021-10-14 17:04:076 days 3 hrs ago0x4428ef2e86c728259405741f3ce8d7e31f584df1OUT Metamask: Swap Router0.015 BNB0.001152945
0xb9aa2052f273de012012e72df10f8bb899a6336d7c312bba0f22ca006b0567fbTransfer117704492021-10-14 17:02:436 days 3 hrs ago0x96b85fa6ba1f7194ab2cb822679c7d2ed155b48c IN 0x4428ef2e86c728259405741f3ce8d7e31f584df10.014 BNB0.000105
0x7b4f2c789963a394ac018b3082df74f4328f112d3c26a9277c11c75bc26323cc0x44ddc37b117633352021-10-14 11:04:536 days 9 hrs ago0x4428ef2e86c728259405741f3ce8d7e31f584df1OUT 0x5c50d79adc20630aef122ed2cf953e377cddd0f40 BNB0.00132937
0x8577152de75c6a4d86f04f673f77ef53e123a3d0bae714b248dee41884eddb86Swap ETH For Exa...117539082021-10-14 3:11:026 days 17 hrs ago0x4428ef2e86c728259405741f3ce8d7e31f584df1OUT PancakeSwap: Router v20.022185073262609 BNB0.000641115
0x3c40487d86625be0acf5a1d86db219c43f22fff9106843252f80441a0e1ddaa1Transfer117538412021-10-14 3:07:416 days 17 hrs ago0x96b85fa6ba1f7194ab2cb822679c7d2ed155b48c IN 0x4428ef2e86c728259405741f3ce8d7e31f584df10.022 BNB0.000105
[ Download CSV Export 
Latest 7 internal transactions
Parent Txn Hash Block From To Value
0x7a28619a1e1da5f48a7bccdadcd2b14df76c50e0ac8effd17cf5fc4e7d7a0f13118646262021-10-17 23:52:222 days 20 hrs ago PancakeSwap: Router v20x4428ef2e86c728259405741f3ce8d7e31f584df10.096690142154437405 BNB
0x2a0c8ea1bcaa1fbecd5d9da278089a48273357308e4eec58bee197d88d8d4795118607292021-10-17 20:36:143 days 10 mins ago PancakeSwap: Router v20x4428ef2e86c728259405741f3ce8d7e31f584df10.025718596641709968 BNB
0x78addc854df7b51286da646704403e74b81e448562cce52813efc63aafb8fedc118605682021-10-17 20:28:113 days 18 mins ago PancakeSwap: Router v20x4428ef2e86c728259405741f3ce8d7e31f584df10.152689805518232098 BNB
0x2d44c86ae3e08156240e8204c7c33e8d5158cb1973f91284a11662dd06c32d97118603792021-10-17 20:18:443 days 28 mins ago 0xc590175e458b83680867afd273527ff58f74c02b0x4428ef2e86c728259405741f3ce8d7e31f584df10.129703551236860892 BNB
0x8577152de75c6a4d86f04f673f77ef53e123a3d0bae714b248dee41884eddb86117539082021-10-14 3:11:026 days 17 hrs ago PancakeSwap: Router v20x4428ef2e86c728259405741f3ce8d7e31f584df10.000108210170629449 BNB
0x17bce4d4dfa07db3e1062fc8269f5863cd299fd387ded54b2477b511adbf7b22113269422021-09-29 4:37:2721 days 16 hrs ago 0xc590175e458b83680867afd273527ff58f74c02b0x4428ef2e86c728259405741f3ce8d7e31f584df10.008667947885374809 BNB
0xc47bb48a08ace810bd7444cdd28280d039d6bf5386137c0c0557a00d0e4178bc110299152021-09-18 19:19:1332 days 1 hr ago 0xc590175e458b83680867afd273527ff58f74c02b0x4428ef2e86c728259405741f3ce8d7e31f584df10.036049158858937325 BNB
[ Download CSV Export 
Loading

Contract Name:
0 BNB

Compiler Version
0

Optimization Enabled:
0 BNB

Other Settings:
-NA-
Block Transaction Gas Used Reward
Age Block Fee Address BC Fee Address Voting Power Jailed Incoming
Block Uncle Number Difficulty Gas Used Reward
Loading
Loading
Make sure to use the "Vote Down" button for any spammy posts, and the "Vote Up" for interesting conversations.